Time;durP1;ratioP1;P1;durP2;ratioP2;P2;SDS_P1;SDS_P2;PMS_P1;PMS_P2;Temp;Humidity;BMP_temperature;BMP_pressure;BME280_temperature;BME280_humidity;BME280_pressure;Samples;Min_cycle;Max_cycle;Signal;HPM_P1;HPM_P2
2024/04/20 00:00:17;;;;;;;55.67;53.53;;;22.30;1.00;;;;;;2615711;54;20172;-60
2024/04/20 00:02:43;;;;;;;56.00;53.90;;;22.20;1.00;;;;;;2615800;47;20195;-61
2024/04/20 00:05:08;;;;;;;55.50;53.40;;;22.20;1.00;;;;;;2611973;54;20169;-62
2024/04/20 00:07:34;;;;;;;56.67;54.47;;;22.20;1.00;;;;;;2611801;54;20143;-61
2024/04/20 00:10:00;;;;;;;55.17;53.07;;;22.20;1.00;;;;;;2612452;54;20158;-60
2024/04/20 00:12:25;;;;;;;56.13;53.93;;;22.20;1.00;;;;;;2611930;54;20189;-60
2024/04/20 00:14:52;;;;;;;57.40;55.20;;;22.20;1.00;;;;;;2612159;54;20150;-59
2024/04/20 00:17:17;;;;;;;56.20;54.00;;;22.20;1.00;;;;;;2612488;39;20214;-60
2024/04/20 00:19:44;;;;;;;55.97;53.80;;;22.20;1.00;;;;;;2612011;47;20419;-60
2024/04/20 00:22:10;;;;;;;56.70;54.50;;;22.10;1.00;;;;;;2612807;54;20158;-61
2024/04/20 00:24:36;;;;;;;56.03;53.83;;;22.10;1.00;;;;;;2612487;54;20481;-61
2024/04/20 00:27:02;;;;;;;56.40;54.20;;;22.10;1.00;;;;;;2612470;54;20457;-61
2024/04/20 00:29:28;;;;;;;57.00;54.80;;;22.10;1.00;;;;;;2611780;54;20418;-60
2024/04/20 00:31:54;;;;;;;57.13;54.93;;;22.10;1.00;;;;;;2608121;54;20415;-62
2024/04/20 00:34:20;;;;;;;57.80;55.50;;;22.10;1.00;;;;;;2612997;31;20690;-60
2024/04/20 00:36:46;;;;;;;57.60;55.30;;;22.10;1.00;;;;;;2611451;54;20146;-60
2024/04/20 00:39:12;;;;;;;57.20;55.00;;;22.10;1.00;;;;;;2611959;54;20175;-60
2024/04/20 00:41:38;;;;;;;56.87;54.67;;;22.10;1.00;;;;;;2612354;39;20782;-60
2024/04/20 00:44:03;;;;;;;56.20;54.00;;;22.10;1.00;;;;;;2611524;54;20419;-60
2024/04/20 00:46:29;;;;;;;56.80;54.60;;;22.10;1.00;;;;;;2612036;54;20177;-64
2024/04/20 00:48:57;;;;;;;56.97;54.77;;;22.00;1.00;;;;;;2612092;54;20143;-64
2024/04/20 00:51:23;;;;;;;57.00;54.80;;;22.00;1.00;;;;;;2612458;39;20804;-64
2024/04/20 00:53:52;;;;;;;56.43;54.23;;;22.00;1.00;;;;;;2612025;54;20466;-62
2024/04/20 00:56:20;;;;;;;56.97;54.77;;;22.00;1.00;;;;;;2610833;54;20400;-60
2024/04/20 00:58:46;;;;;;;57.80;55.50;;;21.90;1.00;;;;;;2610419;54;20423;-59
2024/04/20 01:01:12;;;;;;;57.70;55.40;;;22.00;1.00;;;;;;2611259;39;20595;-59
2024/04/20 01:03:38;;;;;;;57.73;55.43;;;21.90;1.00;;;;;;2610472;54;20530;-59
2024/04/20 01:06:04;;;;;;;57.60;55.30;;;21.90;1.00;;;;;;2610984;54;20961;-63
2024/04/20 01:08:30;;;;;;;56.60;54.40;;;21.90;1.00;;;;;;2612002;39;20579;-60
2024/04/20 01:10:57;;;;;;;57.23;54.97;;;21.90;1.00;;;;;;2612295;54;20424;-60
2024/04/20 01:13:26;;;;;;;57.00;54.80;;;21.90;1.00;;;;;;2613634;47;20462;-59
2024/04/20 01:15:52;;;;;;;56.70;54.50;;;21.90;1.00;;;;;;2613147;54;20438;-60
2024/04/20 01:18:18;;;;;;;56.87;54.63;;;21.90;1.00;;;;;;2611942;47;20431;-59
2024/04/20 01:20:44;;;;;;;56.80;54.60;;;21.90;1.00;;;;;;2612661;39;20993;-60
2024/04/20 01:23:10;;;;;;;56.80;54.60;;;21.90;1.00;;;;;;2612127;54;20170;-59
2024/04/20 01:25:40;;;;;;;57.40;55.13;;;21.90;1.00;;;;;;2611447;54;20159;-60
2024/04/20 01:28:06;;;;;;;57.10;54.80;;;21.90;1.00;;;;;;2612026;54;20147;-60
2024/04/20 01:30:32;;;;;;;57.40;55.10;;;21.80;1.00;;;;;;2612021;47;20581;-60
2024/04/20 01:32:57;;;;;;;57.77;55.47;;;21.80;1.00;;;;;;2611237;47;20527;-59
2024/04/20 01:35:24;;;;;;;57.40;55.10;;;21.80;1.00;;;;;;2611853;54;20158;-60
2024/04/20 01:37:50;;;;;;;56.83;54.63;;;21.80;1.00;;;;;;2612146;54;20163;-59
2024/04/20 01:40:16;;;;;;;56.50;54.30;;;21.80;1.00;;;;;;2612105;54;20422;-59
2024/04/20 01:42:41;;;;;;;56.53;54.33;;;21.80;1.00;;;;;;2612045;54;20664;-60
2024/04/20 01:45:07;;;;;;;56.50;54.30;;;21.80;1.00;;;;;;2611861;54;20170;-59
2024/04/20 01:47:32;;;;;;;57.17;54.87;;;21.80;1.00;;;;;;2611817;54;20172;-59
2024/04/20 01:49:58;;;;;;;56.87;54.67;;;21.80;1.00;;;;;;2612216;39;20679;-59
2024/04/20 01:52:24;;;;;;;57.33;55.03;;;21.80;1.00;;;;;;2612007;54;20182;-59
2024/04/20 01:54:49;;;;;;;58.13;55.83;;;21.80;1.00;;;;;;2611508;54;20153;-59
2024/04/20 01:57:15;;;;;;;57.27;54.97;;;21.80;1.00;;;;;;2612332;54;20957;-59
2024/04/20 01:59:41;;;;;;;57.17;54.87;;;21.80;1.00;;;;;;2610856;54;20205;-59
2024/04/20 02:02:07;;;;;;;57.27;54.97;;;21.80;1.00;;;;;;2610824;54;20200;-58
2024/04/20 02:04:32;;;;;;;57.90;55.60;;;21.70;1.00;;;;;;2610980;54;20174;-58
2024/04/20 02:06:58;;;;;;;58.00;55.70;;;21.70;1.00;;;;;;2610937;54;20170;-65
2024/04/20 02:09:24;;;;;;;57.10;54.90;;;21.70;1.00;;;;;;2612317;54;20158;-64
2024/04/20 02:11:50;;;;;;;56.87;54.60;;;21.70;1.00;;;;;;2611744;54;20806;-64
2024/04/20 02:14:15;;;;;;;56.77;54.57;;;21.70;1.00;;;;;;2611848;54;20461;-64
2024/04/20 02:16:41;;;;;;;57.10;54.80;;;21.70;1.00;;;;;;2612189;54;20158;-62
2024/04/20 02:19:07;;;;;;;57.47;55.17;;;21.70;1.00;;;;;;2612423;54;20167;-62
2024/04/20 02:21:33;;;;;;;56.73;54.53;;;21.70;1.00;;;;;;2613428;39;20565;-62
2024/04/20 02:23:58;;;;;;;57.60;55.30;;;21.70;1.00;;;;;;2613336;54;20213;-63
2024/04/20 02:26:24;;;;;;;56.50;54.30;;;21.70;1.00;;;;;;2613152;50;20202;-62
2024/04/20 02:28:50;;;;;;;57.50;55.20;;;21.60;1.00;;;;;;2613400;54;20143;-63
2024/04/20 02:31:15;;;;;;;58.00;55.70;;;21.70;1.00;;;;;;2613800;54;20693;-62
2024/04/20 02:33:41;;;;;;;57.10;54.80;;;21.70;1.00;;;;;;2613294;39;20636;-62
2024/04/20 02:36:07;;;;;;;57.20;54.90;;;21.70;1.00;;;;;;2613229;54;20147;-62
2024/04/20 02:38:33;;;;;;;57.43;55.13;;;21.70;1.00;;;;;;2613638;54;20679;-62
2024/04/20 02:40:59;;;;;;;56.57;54.37;;;21.70;1.00;;;;;;2612946;54;20396;-62
2024/04/20 02:43:25;;;;;;;57.30;55.00;;;21.70;1.00;;;;;;2613470;47;20167;-62
2024/04/20 02:45:51;;;;;;;56.73;54.47;;;21.60;1.00;;;;;;2613043;54;20411;-63
2024/04/20 02:48:17;;;;;;;57.10;54.80;;;21.60;1.00;;;;;;2613032;47;20530;-62
2024/04/20 02:50:42;;;;;;;57.63;55.33;;;21.60;1.00;;;;;;2613102;54;20391;-62
2024/04/20 02:53:08;;;;;;;57.30;55.00;;;21.60;1.00;;;;;;2613093;51;20194;-62
2024/04/20 02:55:34;;;;;;;56.63;54.43;;;21.60;1.00;;;;;;2613261;47;20726;-62
2024/04/20 02:58:00;;;;;;;57.43;55.13;;;21.60;1.00;;;;;;2613218;54;20154;-62
2024/04/20 03:00:25;;;;;;;58.80;56.40;;;21.60;1.00;;;;;;2612464;54;21297;-63
2024/04/20 03:02:53;;;;;;;57.00;54.70;;;21.60;1.00;;;;;;2612797;54;20158;-63
2024/04/20 03:05:20;;;;;;;57.20;54.90;;;21.60;1.00;;;;;;2612206;54;20201;-63
2024/04/20 03:07:45;;;;;;;57.27;54.97;;;21.60;1.00;;;;;;2612815;54;20491;-68
2024/04/20 03:10:11;;;;;;;58.40;56.00;;;21.60;1.00;;;;;;2612779;54;20955;-68
2024/04/20 03:12:37;;;;;;;58.17;55.87;;;21.60;1.00;;;;;;2612611;39;20446;-69
2024/04/20 03:15:03;;;;;;;57.23;54.93;;;21.60;1.00;;;;;;2612575;47;20201;-68
2024/04/20 03:17:28;;;;;;;58.10;55.80;;;21.50;1.00;;;;;;2612703;54;20289;-60
2024/04/20 03:19:54;;;;;;;57.83;55.53;;;21.50;1.00;;;;;;2613005;54;20151;-58
2024/04/20 03:22:20;;;;;;;58.47;56.10;;;21.50;1.00;;;;;;2612770;54;20185;-59
2024/04/20 03:24:46;;;;;;;58.50;56.10;;;21.50;1.00;;;;;;2612569;54;20167;-59
2024/04/20 03:27:12;;;;;;;58.50;56.10;;;21.50;1.00;;;;;;2612432;54;20402;-60
2024/04/20 03:29:37;;;;;;;58.20;55.83;;;21.50;1.00;;;;;;2610481;54;20166;-60
2024/04/20 03:32:05;;;;;;;58.23;55.93;;;21.50;1.00;;;;;;2610592;39;20958;-60
2024/04/20 03:34:31;;;;;;;58.10;55.80;;;21.50;1.00;;;;;;2611090;47;20507;-59
2024/04/20 03:36:57;;;;;;;58.40;56.00;;;21.50;1.00;;;;;;2611212;54;20404;-60
2024/04/20 03:39:23;;;;;;;58.70;56.30;;;21.50;1.00;;;;;;2611438;54;20179;-60
2024/04/20 03:41:49;;;;;;;59.20;56.80;;;21.50;1.00;;;;;;2611882;47;20422;-60
2024/04/20 03:44:15;;;;;;;58.60;56.30;;;21.50;1.00;;;;;;2611707;47;20166;-60
2024/04/20 03:46:41;;;;;;;59.17;56.77;;;21.50;1.00;;;;;;2611694;54;20937;-61
2024/04/20 03:49:07;;;;;;;58.80;56.40;;;21.50;1.00;;;;;;2611493;54;20262;-60
2024/04/20 03:51:33;;;;;;;59.70;57.30;;;21.50;1.00;;;;;;2611981;47;21025;-60
2024/04/20 03:54:02;;;;;;;58.50;56.10;;;21.50;1.00;;;;;;2611852;47;20190;-60
2024/04/20 03:56:28;;;;;;;59.07;56.67;;;21.50;1.00;;;;;;2611621;54;20289;-60
2024/04/20 03:58:54;;;;;;;58.20;55.90;;;21.50;1.00;;;;;;2611600;54;20396;-60
2024/04/20 04:01:20;;;;;;;59.03;56.63;;;21.50;1.00;;;;;;2611314;39;20795;-60
2024/04/20 04:03:46;;;;;;;60.40;58.00;;;21.50;1.00;;;;;;2610762;54;20418;-59
2024/04/20 04:06:11;;;;;;;58.90;56.50;;;21.50;1.00;;;;;;2610981;54;20221;-61
2024/04/20 04:08:37;;;;;;;59.00;56.60;;;21.50;1.00;;;;;;2611430;54;20174;-61
2024/04/20 04:11:03;;;;;;;58.93;56.53;;;21.50;1.00;;;;;;2611462;54;20178;-61
2024/04/20 04:13:28;;;;;;;59.10;56.70;;;21.50;1.00;;;;;;2611964;54;20159;-61
2024/04/20 04:15:54;;;;;;;59.17;56.77;;;21.50;1.00;;;;;;2611977;54;20261;-61
2024/04/20 04:18:22;;;;;;;59.00;56.60;;;21.50;1.00;;;;;;2610732;54;20173;-59
2024/04/20 04:20:48;;;;;;;58.33;56.00;;;21.50;1.00;;;;;;2611562;39;20545;-59
2024/04/20 04:23:14;;;;;;;58.43;56.03;;;21.50;1.00;;;;;;2611796;54;20940;-60
2024/04/20 04:25:40;;;;;;;58.40;56.10;;;21.50;1.00;;;;;;2611372;54;20408;-59
2024/04/20 04:28:06;;;;;;;58.60;56.30;;;21.50;1.00;;;;;;2611715;54;20242;-61
2024/04/20 04:30:35;;;;;;;58.20;55.90;;;21.50;1.00;;;;;;2611420;54;20158;-60
2024/04/20 04:33:01;;;;;;;59.13;56.83;;;21.50;1.00;;;;;;2611115;54;20150;-60
2024/04/20 04:35:26;;;;;;;58.60;56.30;;;21.50;1.00;;;;;;2610906;54;20502;-60
2024/04/20 04:37:52;;;;;;;59.40;57.00;;;21.50;1.00;;;;;;2611640;50;20151;-64
2024/04/20 04:40:18;;;;;;;59.90;57.50;;;21.40;1.00;;;;;;2611306;54;20398;-63
2024/04/20 04:42:44;;;;;;;59.97;57.57;;;21.40;1.00;;;;;;2611600;39;20768;-63
2024/04/20 04:45:10;;;;;;;59.00;56.70;;;21.40;1.00;;;;;;2612035;54;20495;-63
2024/04/20 04:47:35;;;;;;;58.57;56.27;;;21.40;1.00;;;;;;2612058;54;20230;-64
2024/04/20 04:50:02;;;;;;;58.53;56.23;;;21.40;1.00;;;;;;2612525;54;20334;-64
2024/04/20 04:52:27;;;;;;;59.10;56.70;;;21.40;1.00;;;;;;2612937;39;20801;-63
2024/04/20 04:54:53;;;;;;;58.67;56.37;;;21.40;1.00;;;;;;2612937;54;20415;-64
2024/04/20 04:57:19;;;;;;;58.10;55.80;;;21.40;1.00;;;;;;2612876;54;20203;-64
2024/04/20 04:59:44;;;;;;;58.07;55.77;;;21.40;1.00;;;;;;2613044;54;20154;-64
2024/04/20 05:02:10;;;;;;;58.00;55.70;;;21.40;1.00;;;;;;2612817;54;20142;-64
2024/04/20 05:04:36;;;;;;;57.70;55.40;;;21.30;1.00;;;;;;2613155;54;20519;-64
2024/04/20 05:07:01;;;;;;;58.30;56.00;;;21.40;1.00;;;;;;2613147;39;20665;-63
2024/04/20 05:09:27;;;;;;;56.80;54.60;;;21.40;1.00;;;;;;2612721;54;20143;-63
2024/04/20 05:11:54;;;;;;;56.90;54.70;;;21.40;1.00;;;;;;2612935;54;20659;-65
2024/04/20 05:14:19;;;;;;;57.70;55.40;;;21.40;1.00;;;;;;2612727;54;20162;-63
2024/04/20 05:16:47;;;;;;;57.37;55.17;;;21.40;1.00;;;;;;2613163;54;20967;-64
2024/04/20 05:19:13;;;;;;;58.60;56.30;;;21.30;1.00;;;;;;2612532;54;20174;-63
2024/04/20 05:21:39;;;;;;;58.13;55.83;;;21.30;1.00;;;;;;2612807;39;20685;-63
2024/04/20 05:24:05;;;;;;;59.17;56.77;;;21.30;1.00;;;;;;2612068;54;20542;-64
2024/04/20 05:26:31;;;;;;;58.40;56.10;;;21.30;1.00;;;;;;2612362;54;20290;-68
2024/04/20 05:28:57;;;;;;;58.20;55.90;;;21.30;1.00;;;;;;2612902;54;20419;-69
2024/04/20 05:31:22;;;;;;;57.83;55.53;;;21.30;1.00;;;;;;2613246;54;20457;-68
2024/04/20 05:33:48;;;;;;;59.40;57.10;;;21.30;1.00;;;;;;2612866;54;20143;-69
2024/04/20 05:36:14;;;;;;;58.23;55.93;;;21.30;1.00;;;;;;2612993;54;20161;-60
2024/04/20 05:38:39;;;;;;;58.57;56.27;;;21.30;1.00;;;;;;2612693;54;20660;-61
2024/04/20 05:41:05;;;;;;;59.07;56.77;;;21.30;1.00;;;;;;2612867;39;20206;-60
2024/04/20 05:43:32;;;;;;;58.43;56.13;;;21.30;1.00;;;;;;2612125;47;20258;-60
2024/04/20 05:45:58;;;;;;;58.40;56.10;;;21.30;1.00;;;;;;2612709;54;20844;-60
2024/04/20 05:48:24;;;;;;;59.30;56.90;;;21.30;1.00;;;;;;2614116;39;20804;-72
2024/04/20 05:50:50;;;;;;;57.97;55.67;;;21.30;1.00;;;;;;2613178;54;20439;-73
2024/04/20 05:53:15;;;;;;;57.70;55.40;;;21.30;1.00;;;;;;2613761;39;20675;-71
2024/04/20 05:55:42;;;;;;;58.30;56.00;;;21.30;1.00;;;;;;2612713;54;20170;-71
2024/04/20 05:58:07;;;;;;;58.10;55.80;;;21.30;1.00;;;;;;2611386;54;20774;-72
2024/04/20 06:00:34;;;;;;;55.30;53.20;;;21.30;1.00;;;;;;2613215;47;20432;-68
2024/04/20 06:02:59;;;;;;;54.50;52.50;;;21.40;1.00;;;;;;2611062;54;20176;-68
2024/04/20 06:05:25;;;;;;;54.53;52.53;;;21.50;1.00;;;;;;2612910;54;20404;-69
2024/04/20 06:07:51;;;;;;;55.60;53.50;;;21.50;1.00;;;;;;2612779;54;20170;-69
2024/04/20 06:10:16;;;;;;;54.40;52.40;;;21.50;1.00;;;;;;2612328;47;20178;-69
2024/04/20 06:12:42;;;;;;;59.43;57.07;;;21.50;1.00;;;;;;2612433;47;20653;-69
2024/04/20 06:15:08;;;;;;;61.57;59.07;;;21.50;1.00;;;;;;2613258;54;20150;-72
2024/04/20 06:17:34;;;;;;;66.10;63.37;;;22.00;1.00;;;;;;2613706;54;20186;-74
2024/04/20 06:20:00;;;;;;;64.80;62.20;;;22.30;1.00;;;;;;2612809;54;20254;-68
2024/04/20 06:22:25;;;;;;;64.70;62.00;;;22.50;1.00;;;;;;2613308;54;20415;-68
2024/04/20 06:24:54;;;;;;;64.50;61.90;;;22.80;1.00;;;;;;2613418;39;20613;-69
2024/04/20 06:27:20;;;;;;;62.37;59.77;;;23.00;1.00;;;;;;2614703;54;20178;-83
2024/04/20 06:29:46;;;;;;;62.47;59.87;;;23.10;1.00;;;;;;2614679;54;20446;-74
2024/04/20 06:32:12;;;;;;;63.33;60.73;;;23.00;1.00;;;;;;2614523;54;20808;-73
2024/04/20 06:34:37;;;;;;;64.60;61.90;;;23.00;1.00;;;;;;2614224;54;20159;-76
2024/04/20 06:37:03;;;;;;;63.70;61.10;;;23.00;1.00;;;;;;2613551;47;20171;-70
2024/04/20 06:39:29;;;;;;;64.20;61.50;;;23.10;1.00;;;;;;2613748;47;20161;-70
2024/04/20 06:41:56;;;;;;;63.40;60.80;;;23.20;1.00;;;;;;2617177;54;20166;-68
2024/04/20 06:44:23;;;;;;;62.47;59.87;;;23.20;1.00;;;;;;2619012;54;20171;-67
2024/04/20 06:46:49;;;;;;;63.43;60.83;;;23.20;1.00;;;;;;2616539;54;20423;-66
2024/04/20 06:49:15;;;;;;;63.47;60.87;;;23.30;1.00;;;;;;2613493;47;20450;-66
2024/04/20 06:51:41;;;;;;;62.33;59.73;;;23.40;1.00;;;;;;2613855;54;20170;-66
2024/04/20 06:54:07;;;;;;;62.60;60.00;;;23.40;1.00;;;;;;2612761;54;20532;-60
2024/04/20 06:56:32;;;;;;;61.83;59.33;;;23.50;1.00;;;;;;2612725;54;20258;-72
2024/04/20 06:58:58;;;;;;;56.40;54.30;;;23.60;1.00;;;;;;2613136;54;20173;-69
2024/04/20 07:01:24;;;;;;;55.87;53.77;;;23.50;1.00;;;;;;2611422;54;20185;-69
2024/04/20 07:03:49;;;;;;;56.77;54.67;;;23.10;1.00;;;;;;2612577;31;20592;-70
2024/04/20 07:06:15;;;;;;;57.73;55.53;;;22.80;1.00;;;;;;2612513;47;20262;-70
2024/04/20 07:08:41;;;;;;;57.70;55.50;;;22.60;1.00;;;;;;2611736;54;20165;-69
2024/04/20 07:11:07;;;;;;;60.83;58.43;;;;;;;;;;2611210;54;20222;-66
2024/04/20 07:13:40;;;;;;;64.57;61.87;;;;;;;;;;2612665;54;20154;-66
2024/04/20 07:16:06;;;;;;;58.30;56.10;;;;;;;;;;2613432;54;20387;-74
2024/04/20 07:18:32;;;;;;;60.17;57.77;;;22.30;1.00;;;;;;2613659;54;20419;-69
2024/04/20 07:21:07;;;;;;;65.87;63.23;;;22.30;1.00;;;;;;2613418;54;20430;-69
2024/04/20 07:23:33;;;;;;;60.87;58.47;;;22.40;1.00;;;;;;2613494;54;20229;-70
2024/04/20 07:26:01;;;;;;;61.90;59.40;;;22.60;1.00;;;;;;2613365;54;20415;-71
2024/04/20 07:28:27;;;;;;;61.13;58.73;;;22.70;1.00;;;;;;2612974;54;20385;-73
2024/04/20 07:30:52;;;;;;;62.17;59.77;;;22.80;1.00;;;;;;2612907;54;20503;-69
2024/04/20 07:33:19;;;;;;;63.27;60.77;;;;;;;;;;2613113;54;20955;-69
2024/04/20 07:35:45;;;;;;;62.07;59.67;;;;;;;;;;2612556;54;20167;-67
2024/04/20 07:38:11;;;;;;;62.47;60.07;;;;;;;;;;2613690;54;20419;-68
2024/04/20 07:40:37;;;;;;;62.37;59.90;;;22.90;1.00;;;;;;2613150;54;20419;-67
2024/04/20 07:43:03;;;;;;;63.07;60.57;;;23.10;1.00;;;;;;2613172;54;21038;-68
2024/04/20 07:45:29;;;;;;;57.70;55.50;;;23.10;1.00;;;;;;2613885;47;20174;-77
2024/04/20 07:47:55;;;;;;;59.30;57.00;;;23.10;1.00;;;;;;2613709;54;20411;-69
2024/04/20 07:50:22;;;;;;;62.17;59.87;;;22.90;1.00;;;;;;2613859;54;20463;-67
2024/04/20 07:52:48;;;;;;;62.43;60.03;;;22.80;1.00;;;;;;2613062;54;20183;-68
2024/04/20 07:55:14;;;;;;;60.97;58.57;;;23.20;1.00;;;;;;2614483;31;20848;-71
2024/04/20 07:57:40;;;;;;;61.93;59.50;;;23.70;1.00;;;;;;2612825;54;20431;-65
2024/04/20 08:00:07;;;;;;;57.17;54.97;;;24.00;1.00;;;;;;2613182;54;20428;-67
2024/04/20 08:02:32;;;;;;;57.73;55.53;;;23.90;1.00;;;;;;2612532;39;20282;-66
2024/04/20 08:04:58;;;;;;;56.40;54.30;;;23.50;1.00;;;;;;2613358;47;20416;-66
2024/04/20 08:07:24;;;;;;;57.10;54.90;;;23.10;1.00;;;;;;2613201;54;20189;-69
2024/04/20 08:09:49;;;;;;;58.90;56.70;;;22.80;1.00;;;;;;2613479;54;20167;-69
2024/04/20 08:12:15;;;;;;;57.73;55.53;;;22.60;1.00;;;;;;2613680;54;20248;-68
2024/04/20 08:14:41;;;;;;;58.80;56.50;;;22.40;1.00;;;;;;2613498;54;20161;-71
2024/04/20 08:17:07;;;;;;;56.90;54.80;;;22.30;1.00;;;;;;2613058;54;20169;-71
2024/04/20 08:19:33;;;;;;;58.20;56.00;;;22.30;1.00;;;;;;2613415;51;20424;-71
2024/04/20 08:21:59;;;;;;;57.50;55.30;;;22.20;1.00;;;;;;2612686;54;20419;-72
2024/04/20 08:24:24;;;;;;;58.33;56.03;;;22.20;1.00;;;;;;2612389;54;20170;-71
2024/04/20 08:26:50;;;;;;;58.83;56.53;;;22.10;1.00;;;;;;2613081;54;20691;-69
2024/04/20 08:29:16;;;;;;;58.57;56.27;;;22.00;1.00;;;;;;2612614;54;20238;-70
2024/04/20 08:31:41;;;;;;;59.07;56.77;;;21.80;1.00;;;;;;2613644;47;20158;-69
2024/04/20 08:34:07;;;;;;;58.00;55.80;;;21.70;1.00;;;;;;2613312;54;20162;-70
2024/04/20 08:36:33;;;;;;;59.73;57.43;;;21.70;1.00;;;;;;2613899;54;20136;-70
2024/04/20 08:38:59;;;;;;;57.90;55.70;;;21.60;1.00;;;;;;2613642;54;21035;-70
2024/04/20 08:41:25;;;;;;;59.50;57.20;;;21.60;1.00;;;;;;2613573;54;20162;-70
2024/04/20 08:43:52;;;;;;;58.83;56.53;;;21.60;1.00;;;;;;2613280;51;20175;-69
2024/04/20 08:46:19;;;;;;;60.20;57.80;;;21.50;1.00;;;;;;2613270;50;20419;-70
2024/04/20 08:48:49;;;;;;;58.00;55.80;;;21.60;1.00;;;;;;2612957;54;21453;-70
2024/04/20 08:51:20;;;;;;;58.17;55.93;;;21.70;1.00;;;;;;2613701;54;20411;-69
2024/04/20 08:53:47;;;;;;;58.27;56.07;;;21.70;1.00;;;;;;2613658;54;20851;-69
2024/04/20 08:56:14;;;;;;;57.60;55.40;;;21.80;1.00;;;;;;2613450;51;20408;-69
2024/04/20 08:58:40;;;;;;;56.83;54.63;;;21.80;1.00;;;;;;2612683;54;20454;-69
2024/04/20 09:01:11;;;;;;;58.40;56.20;;;22.00;1.00;;;;;;2611485;54;20399;-70
2024/04/20 09:03:37;;;;;;;58.20;56.00;;;22.20;1.00;;;;;;2612881;39;21022;-69
2024/04/20 09:06:03;;;;;;;58.27;56.07;;;22.40;1.00;;;;;;2612165;54;20420;-68
2024/04/20 09:08:31;;;;;;;57.73;55.53;;;22.60;1.00;;;;;;2615153;54;20155;-79
2024/04/20 09:10:57;;;;;;;57.70;55.50;;;22.90;1.00;;;;;;2614285;47;20166;-77
2024/04/20 09:13:23;;;;;;;58.33;56.13;;;23.10;1.00;;;;;;2613573;54;20451;-78
2024/04/20 09:15:49;;;;;;;57.50;55.30;;;23.30;1.00;;;;;;2613988;54;20404;-79
2024/04/20 09:18:17;;;;;;;57.83;55.63;;;23.50;1.00;;;;;;2613490;39;20347;-73
2024/04/20 09:20:47;;;;;;;58.27;56.07;;;23.60;1.00;;;;;;2614107;39;20752;-73
2024/04/20 09:23:13;;;;;;;58.20;56.00;;;23.60;1.00;;;;;;2613550;39;20993;-74
2024/04/20 09:25:39;;;;;;;57.50;55.30;;;23.60;1.00;;;;;;2613467;39;20873;-74
2024/04/20 09:28:06;;;;;;;57.47;55.27;;;23.60;1.00;;;;;;2611945;54;20170;-66
2024/04/20 09:30:32;;;;;;;57.70;55.50;;;23.60;1.00;;;;;;2612940;54;21213;-65
2024/04/20 09:32:58;;;;;;;57.60;55.40;;;23.60;1.00;;;;;;2612257;54;20430;-66
2024/04/20 09:35:24;;;;;;;58.07;55.87;;;23.70;1.00;;;;;;2612630;54;20415;-65
2024/04/20 09:37:53;;;;;;;57.20;55.00;;;23.70;1.00;;;;;;2612551;47;20412;-65
2024/04/20 09:40:19;;;;;;;57.03;54.93;;;23.80;1.00;;;;;;2612679;54;20443;-64
2024/04/20 09:42:46;;;;;;;58.90;56.63;;;24.00;1.00;;;;;;2612932;54;20400;-64
2024/04/20 09:45:13;;;;;;;57.40;55.20;;;24.20;1.00;;;;;;2612057;54;20443;-67
2024/04/20 09:47:40;;;;;;;58.80;56.60;;;24.30;1.00;;;;;;2613852;51;20422;-65
2024/04/20 09:50:10;;;;;;;57.77;55.57;;;24.30;1.00;;;;;;2612240;54;20415;-65
2024/04/20 09:52:56;;;;;;;58.80;56.50;;;24.40;1.00;;;;;;2612514;54;20511;-65
2024/04/20 09:55:34;;;;;;;61.83;59.43;;;24.30;1.00;;;;;;2613412;39;20801;-65
2024/04/20 09:58:02;;;;;;;58.80;56.50;;;24.20;1.00;;;;;;2612850;54;20439;-65
2024/04/20 10:00:32;;;;;;;59.20;56.90;;;24.20;1.00;;;;;;2612364;47;20416;-65
2024/04/20 10:03:05;;;;;;;57.03;54.93;;;24.30;1.00;;;;;;2611737;54;20404;-64
2024/04/20 10:05:35;;;;;;;57.83;55.63;;;24.40;1.00;;;;;;2612236;54;20958;-65
2024/04/20 10:08:02;;;;;;;58.33;56.13;;;24.50;1.00;;;;;;2612255;47;20423;-64
2024/04/20 10:10:29;;;;;;;59.17;56.87;;;24.60;1.00;;;;;;2612400;47;20430;-63
2024/04/20 10:13:00;;;;;;;58.37;56.17;;;24.70;1.00;;;;;;2613219;54;20457;-65
2024/04/20 10:15:28;;;;;;;58.10;55.90;;;24.70;1.00;;;;;;2613094;39;20752;-66
2024/04/20 10:17:54;;;;;;;56.90;54.80;;;24.80;1.00;;;;;;2613489;54;20399;-65
2024/04/20 10:20:33;;;;;;;57.10;55.00;;;24.90;1.00;;;;;;2613272;39;20820;-65
2024/04/20 10:23:00;;;;;;;58.00;55.80;;;24.80;1.00;;;;;;2613026;54;20424;-65
2024/04/20 10:25:32;;;;;;;57.63;55.43;;;24.70;1.00;;;;;;2612721;47;20515;-66
2024/04/20 10:27:58;;;;;;;58.03;55.83;;;24.70;1.00;;;;;;2612153;54;20951;-70
2024/04/20 10:30:24;;;;;;;56.60;54.50;;;24.70;1.00;;;;;;2612395;54;20563;-70
2024/04/20 10:33:02;;;;;;;57.00;54.90;;;24.60;1.00;;;;;;2612608;54;20265;-70
2024/04/20 10:35:28;;;;;;;58.00;55.80;;;24.60;1.00;;;;;;2612720;54;20458;-70
2024/04/20 10:38:07;;;;;;;57.93;55.73;;;24.60;1.00;;;;;;2613556;54;20983;-70
2024/04/20 10:40:34;;;;;;;58.30;56.10;;;24.70;1.00;;;;;;2613269;54;20155;-70
2024/04/20 10:43:19;;;;;;;58.83;56.53;;;24.90;1.00;;;;;;2613270;54;20384;-71
2024/04/20 10:45:45;;;;;;;59.20;56.90;;;25.00;1.00;;;;;;2613003;47;20431;-69
2024/04/20 10:48:16;;;;;;;59.00;56.70;;;25.10;1.00;;;;;;2613337;54;20392;-74
2024/04/20 10:50:43;;;;;;;60.00;57.60;;;25.00;1.00;;;;;;2613365;54;20942;-78
2024/04/20 10:53:10;;;;;;;60.00;57.60;;;24.10;1.00;;;;;;2612642;54;20482;-76
2024/04/20 10:55:36;;;;;;;67.93;65.23;;;23.40;1.00;;;;;;2612923;54;20419;-75
2024/04/20 10:58:02;;;;;;;67.00;64.20;;;22.90;1.00;;;;;;2611719;54;20460;-75
2024/04/20 11:00:29;;;;;;;67.83;65.13;;;23.00;1.00;;;;;;2611966;54;20423;-73
2024/04/20 11:02:55;;;;;;;67.60;64.90;;;23.10;1.00;;;;;;2611673;39;20785;-72
2024/04/20 11:05:21;;;;;;;69.10;66.40;;;23.10;1.00;;;;;;2612086;39;20732;-70
2024/04/20 11:08:09;;;;;;;68.37;65.67;;;23.10;1.00;;;;;;2612560;54;20423;-70
2024/04/20 11:10:35;;;;;;;67.60;64.90;;;23.00;1.00;;;;;;2612484;54;20416;-70
2024/04/20 11:13:04;;;;;;;67.90;65.30;;;23.10;1.00;;;;;;2614031;47;20422;-73
2024/04/20 11:15:31;;;;;;;68.30;65.70;;;23.40;1.00;;;;;;2613677;54;20691;-72
2024/04/20 11:17:58;;;;;;;67.80;65.20;;;23.70;1.00;;;;;;2614170;54;20425;-72
2024/04/20 11:20:24;;;;;;;67.60;65.00;;;23.90;1.00;;;;;;2613909;54;20430;-71
2024/04/20 11:22:50;;;;;;;68.67;66.07;;;24.20;1.00;;;;;;2613735;54;20428;-72
2024/04/20 11:25:16;;;;;;;67.70;65.10;;;24.40;1.00;;;;;;2613900;54;20147;-72
2024/04/20 11:27:47;;;;;;;68.50;65.80;;;24.60;1.00;;;;;;2613696;47;20174;-72
2024/04/20 11:30:14;;;;;;;67.57;64.97;;;24.80;1.00;;;;;;2613650;54;20412;-73
2024/04/20 11:32:40;;;;;;;67.70;65.10;;;24.90;1.00;;;;;;2613353;47;20436;-73
2024/04/20 11:35:09;;;;;;;59.10;56.80;;;25.00;1.00;;;;;;2612876;54;20438;-72
2024/04/20 11:37:35;;;;;;;59.97;57.57;;;25.00;1.00;;;;;;2613074;54;20495;-67
2024/04/20 11:40:03;;;;;;;68.97;66.17;;;25.10;1.00;;;;;;2613125;54;20388;-73
2024/04/20 11:42:29;;;;;;;69.27;66.47;;;25.00;1.00;;;;;;2613179;47;20169;-67
2024/04/20 11:44:55;;;;;;;69.30;66.50;;;25.10;1.00;;;;;;2613110;54;20407;-64
2024/04/20 11:47:21;;;;;;;68.77;66.07;;;25.20;1.00;;;;;;2613689;54;20162;-78
2024/04/20 11:49:54;;;;;;;63.30;60.80;;;25.40;1.00;;;;;;2613957;39;20566;-74
2024/04/20 11:55:12;;;;;;;70.93;68.10;;;25.40;1.00;;;;;;2613058;54;20460;-67
2024/04/20 11:57:38;;;;;;;71.43;68.53;;;25.60;1.00;;;;;;2611955;51;21006;-68
2024/04/20 12:00:06;;;;;;;69.97;67.17;;;25.80;1.00;;;;;;2611541;54;20395;-67
2024/04/20 12:02:32;;;;;;;70.13;67.33;;;25.80;1.00;;;;;;2612674;47;20419;-67
2024/04/20 12:05:02;;;;;;;71.70;68.90;;;25.90;1.00;;;;;;2613119;54;20403;-68
2024/04/20 12:07:27;;;;;;;70.80;68.00;;;26.00;1.00;;;;;;2612668;54;20438;-66
2024/04/20 12:09:53;;;;;;;70.70;67.90;;;26.00;1.00;;;;;;2612953;54;20388;-68
2024/04/20 12:12:19;;;;;;;70.47;67.67;;;26.00;1.00;;;;;;2612387;54;20147;-67
2024/04/20 12:14:45;;;;;;;63.50;60.90;;;26.00;1.00;;;;;;2611667;54;20171;-67
2024/04/20 12:17:10;;;;;;;64.10;61.50;;;25.90;1.00;;;;;;2613375;39;20614;-68
2024/04/20 12:19:36;;;;;;;64.13;61.53;;;25.60;1.00;;;;;;2613238;39;20553;-69
2024/04/20 12:22:02;;;;;;;64.13;61.53;;;25.50;1.00;;;;;;2613584;54;20206;-68
2024/04/20 12:24:28;;;;;;;61.50;59.00;;;25.40;1.00;;;;;;2613311;54;20666;-69
2024/04/20 12:26:54;;;;;;;59.17;56.83;;;25.40;1.00;;;;;;2614144;54;20143;-71
2024/04/20 12:29:20;;;;;;;64.90;62.20;;;25.30;1.00;;;;;;2614511;39;20796;-74
2024/04/20 12:31:46;;;;;;;71.90;69.00;;;25.10;1.00;;;;;;2614460;54;20177;-68
2024/04/20 12:34:12;;;;;;;64.77;62.07;;;25.10;1.00;;;;;;2613816;54;20953;-70
2024/04/20 12:36:39;;;;;;;64.00;61.40;;;25.10;1.00;;;;;;2613694;39;20440;-70